Aérodrome :
LOGIN :

S'inscrire | Disclaimer

   EN    FR    IT 

 










Légende :    VFR   VFR Marginal   IFR   IFR Intensif   IFR Très Intensif
Visi : 
Plafond : 
>= 8 km
>= 3000ft
5 à 8 km
1000 à 3000 ft
1500m à 5 km
500 à 1000 ft
800 à 1500m
200 à 500 ft
< 800m
< 200 ft
Symboles :   Orages  Brouillard  Fortes neiges  Fortes précipitations  Vent > 20 kt
SIGMETs :   Divers  Orages  Givrage  Turbulence  Onde Orograph.  Cendres Volcan.






- Altitude de l'aérodrome : 53 ft
- Code IATA : HRT


EGXU - RAF Linton-on-Ouse

DERNIER METAR :
  • 141350Z 03019KT 9999 FEW030 BKN070 07/02 Q1002 RMK BLU

METARs EXPIRÉS :
  • 141320Z 02015KT 9999 FEW030 BKN070 07/02 Q1002 RMK BLU
  • 141220Z 03013KT 9999 FEW040 BKN100 07/02 Q1002 RMK BLU
  • 141150Z 02013KT 9999 FEW042 BKN100 07/02 Q1002 RMK BLU
  • 141120Z 02014KT 9999 FEW042 BKN090 07/02 Q1002 RMK BLU
  • 141050Z 02015KT 9999 FEW042 BKN090 07/03 Q1001 RMK BLU

TAF TAF EGXU
Valide du 14 à 12h jusqu'au 14 à 19h UTC


141049Z 1412/1419 02010KT 9999 FEW025 SCT045
TEMPO 1412/1419 02016G26KT
BECMG 1416/1418 6000 RA BKN018



MET'MAP, la Météo Aéronautique d'un coup d'oeil ! - Copyright ORBIFLY Décembre 2007 - Disclaimer

ORBIFLY MET'MAP TEAM :

Programmation & Développement : Alexandra Zaïnal
Conception & Développement : Baudouin d'Aumeries
Co-Programmation & Développement : Marc-Olivier Méhu
Soutien technique & logistique : Manuel Goepfert

Contact : metmap@orbifly.com




SOURCES & CREDITS :

   NOAA